KAKQ/AKQ METAR and TAF weather

Enter ICAO airport designator
Station Type Date Time Source
KAKQ METAR 2021/09/28 14:54 UTC NOAA

KAKQ 281454Z AUTO 24006KT 10SM CLR 26/17 A2995 RMK AO2 SLP140 T02560172 58003


Station Type Date Time Source
KAKQ Decoded METAR 2021/09/28 14:54 UTC NOAA

WAKEFIELD MUNICIPAL AIRPOR, VA, United States (KAKQ) 36-59N 077-00W 33M
Sep 28, 2021 - 10:54 AM EDT / 2021.09.28 1454 UTC
Wind: from the WSW (240 degrees) at 7 MPH (6 KT):0
Visibility: 10 mile(s):0
Sky conditions: clear
Temperature: 78.1 F (25.6 C)
Dew Point: 63.0 F (17.2 C)
Relative Humidity: 59%
Pressure (altimeter): 29.95 in. Hg (1014 hPa)
Pressure tendency: 0.01 inches (0.3 hPa) lower than three hours ago
ob: KAKQ 281454Z AUTO 24006KT 10SM CLR 26/17 A2995 RMK AO2 SLP140 T02560172 58003
cycle: 15

Station Type Date Time Source
KAKQ TAF UTC NOAA

Error!

Example: see airport list